πŸ“Š DonnΓ©es MΓ©tΓ©o - Bordeaux

Total mesures

14,396

TempΓ©rature moyenne

18.9Β°C

Temp. Min/Max

2.9Β° / 42.4Β°

HumiditΓ© moyenne

64.8%

Pression moyenne

1014.7 hPa
enregistrements
ID Date/Heure Temp (Β°C) HumiditΓ© (%) Pression (hPa) Tendance LuminositΓ© (lux) Situation
11896 24/07/2026 13:45 36.0 14.0 1,007.8 β†’ Stable 99,912 chaleur-seche
11895 24/07/2026 13:15 35.5 15.0 1,007.9 β†’ Stable 103,152 chaleur-seche
11894 24/07/2026 12:45 34.9 15.0 1,008.8 β†’ Stable 105,000 chaleur-seche
11893 24/07/2026 12:15 34.3 17.0 1,008.8 β†’ Stable 105,648 chaleur-seche
11892 24/07/2026 11:45 33.2 20.0 1,009.4 β†’ Stable 104,904 chaleur-seche
11891 24/07/2026 11:15 32.4 22.0 1,009.4 β†’ Stable 102,876 chaleur-seche
11890 24/07/2026 10:45 31.5 23.0 1,010.4 β†’ Stable 99,540 chaleur-seche
11889 24/07/2026 10:15 30.5 26.0 1,010.4 β†’ Stable 95,004 chaleur-seche
11888 24/07/2026 09:45 29.4 28.0 1,011.0 β†’ Stable 89,256 conditions-neutrales-ou-non-definies
11887 24/07/2026 09:15 28.1 32.0 1,011.0 β†’ Stable 81,948 confortablement-chaud (approx.)
11886 24/07/2026 08:45 26.7 35.0 1,011.6 β†’ Stable 74,172 confortablement-chaud (approx.)
11885 24/07/2026 08:15 25.3 38.0 1,011.6 β†’ Stable 61,668 conditions-neutrales-ou-non-definies
11884 24/07/2026 07:45 24.0 41.0 1,012.1 β†’ Stable 52,320 confortablement-chaud (approx.)
11883 24/07/2026 07:15 22.5 45.0 1,012.1 β†’ Stable 39,816 frais-stable
11882 24/07/2026 06:45 21.8 47.0 1,012.3 β†’ Stable 31,020 frais-stable
11881 24/07/2026 06:15 20.3 54.0 1,012.3 β†’ Stable 18,888 frais-stable
11880 24/07/2026 05:45 19.9 55.0 1,012.6 β†’ Stable 11,208 frais-stable
11879 24/07/2026 05:15 19.8 55.0 1,012.6 β†’ Stable 2,688 frais-stable
11878 24/07/2026 04:45 20.1 53.0 1,012.6 β†’ Stable 0 frais-stable
11877 24/07/2026 04:15 20.5 51.0 1,012.6 β†’ Stable 0 frais-stable
11876 24/07/2026 03:45 20.9 49.0 1,012.8 β†’ Stable 0 frais-stable
11875 24/07/2026 03:15 21.2 49.0 1,012.8 β†’ Stable 0 frais-stable
11874 24/07/2026 03:00 21.4 48.0 1,012.8 β†’ Stable 0 frais-stable
11873 24/07/2026 02:45 21.6 47.0 1,012.9 β†’ Stable 0 frais-stable
11872 24/07/2026 02:15 21.9 47.0 1,012.9 β†’ Stable 0 frais-stable
11871 24/07/2026 01:45 22.3 45.0 1,013.3 β†’ Stable 0 frais-stable
11870 24/07/2026 01:15 23.0 44.0 1,013.3 β†’ Stable 0 frais-stable
11869 24/07/2026 00:45 23.3 42.0 1,013.3 β†’ Stable 0 conditions-neutrales-ou-non-definies
11868 24/07/2026 00:15 23.9 39.0 1,013.3 β†’ Stable 0 conditions-neutrales-ou-non-definies
11867 23/07/2026 23:45 24.4 37.0 1,013.6 β†’ Stable 0 conditions-neutrales-ou-non-definies
11866 23/07/2026 23:15 24.8 35.0 1,013.6 β†’ Stable 0 conditions-neutrales-ou-non-definies
11865 23/07/2026 22:45 25.2 33.0 1,013.5 β†’ Stable 0 conditions-neutrales-ou-non-definies
11864 23/07/2026 22:15 26.3 30.0 1,013.5 β†’ Stable 0 conditions-neutrales-ou-non-definies
11863 23/07/2026 21:45 26.9 28.0 1,013.4 β†’ Stable 0 conditions-neutrales-ou-non-definies
11862 23/07/2026 21:15 27.5 28.0 1,013.4 β†’ Stable 0 conditions-neutrales-ou-non-definies
11861 23/07/2026 20:45 28.2 26.0 1,013.0 β†’ Stable 0 conditions-neutrales-ou-non-definies
11860 23/07/2026 20:15 29.3 23.0 1,013.0 β†’ Stable 0 conditions-neutrales-ou-non-definies
11859 23/07/2026 19:45 30.1 22.0 1,012.6 β†’ Stable 96 chaleur-seche
11858 23/07/2026 19:15 31.5 18.0 1,012.6 β†’ Stable 6,108 chaleur-seche
11857 23/07/2026 18:45 32.2 17.0 1,012.9 β†’ Stable 14,172 chaleur-seche
11856 23/07/2026 18:15 33.2 16.0 1,012.9 β†’ Stable 25,092 chaleur-seche
11855 23/07/2026 17:45 33.6 16.0 1,012.9 β†’ Stable 35,184 chaleur-seche
11854 23/07/2026 17:15 33.9 16.0 1,012.9 β†’ Stable 46,848 chaleur-seche
11853 23/07/2026 16:45 34.1 16.0 1,012.9 β†’ Stable 56,940 chaleur-seche
11852 23/07/2026 16:15 34.6 16.0 1,012.9 β†’ Stable 67,032 chaleur-seche
11851 23/07/2026 15:45 34.7 17.0 1,013.1 β†’ Stable 75,744 chaleur-seche
11850 23/07/2026 15:15 34.9 18.0 1,013.1 β†’ Stable 83,328 chaleur-seche
11849 23/07/2026 14:45 34.8 18.0 1,013.5 β†’ Stable 90,000 chaleur-seche
11848 23/07/2026 14:15 34.7 18.0 1,013.5 β†’ Stable 95,652 chaleur-seche
11847 23/07/2026 13:45 34.4 18.0 1,013.9 β†’ Stable 100,092 chaleur-seche
11846 23/07/2026 13:15 34.0 19.0 1,013.9 β†’ Stable 103,236 chaleur-seche
11845 23/07/2026 12:45 33.6 20.0 1,014.6 β†’ Stable 105,180 chaleur-seche
11844 23/07/2026 12:15 33.1 21.0 1,014.6 β†’ Stable 105,828 chaleur-seche
11843 23/07/2026 11:45 32.4 22.0 1,015.1 β†’ Stable 105,096 chaleur-seche
11842 23/07/2026 11:15 31.5 24.0 1,015.1 β†’ Stable 103,056 chaleur-seche
11841 23/07/2026 10:45 30.6 27.0 1,015.6 β†’ Stable 99,720 chaleur-seche
11840 23/07/2026 10:15 29.7 29.0 1,015.6 β†’ Stable 95,184 conditions-neutrales-ou-non-definies
11839 23/07/2026 09:45 28.7 31.0 1,015.5 β†’ Stable 89,448 confortablement-chaud (approx.)
11838 23/07/2026 09:15 27.5 34.0 1,015.5 β†’ Stable 82,500 confortablement-chaud (approx.)
11837 23/07/2026 08:45 26.4 37.0 1,015.6 β†’ Stable 74,724 confortablement-chaud (approx.)
11836 23/07/2026 08:15 25.1 40.0 1,015.6 β†’ Stable 63,336 confortablement-chaud (approx.)
11835 23/07/2026 07:45 24.0 42.0 1,015.5 β†’ Stable 54,072 confortablement-chaud (approx.)
11834 23/07/2026 07:15 22.7 45.0 1,015.5 β†’ Stable 41,292 frais-stable
11833 23/07/2026 06:45 21.6 49.0 1,015.3 β†’ Stable 31,944 frais-stable
11832 23/07/2026 06:15 20.3 53.0 1,015.3 β†’ Stable 19,356 frais-stable
11831 23/07/2026 05:45 19.5 56.0 1,015.1 β†’ Stable 11,664 frais-stable
11830 23/07/2026 05:15 19.3 57.0 1,015.1 β†’ Stable 3,420 frais-stable
11829 23/07/2026 04:45 19.4 56.0 1,014.9 β†’ Stable 0 frais-stable
11828 23/07/2026 04:15 19.8 54.0 1,014.9 β†’ Stable 0 frais-stable
11827 23/07/2026 03:45 20.1 52.0 1,014.8 β†’ Stable 0 frais-stable
11826 23/07/2026 03:15 20.6 49.0 1,014.8 β†’ Stable 0 frais-stable
11825 23/07/2026 03:00 20.8 48.0 1,014.8 β†’ Stable 0 frais-stable
11824 23/07/2026 02:45 21.0 47.0 1,014.6 β†’ Stable 0 frais-stable
11823 23/07/2026 02:15 21.6 47.0 1,014.6 β†’ Stable 0 frais-stable
11822 23/07/2026 01:45 22.0 45.0 1,015.1 β†’ Stable 0 frais-stable
11821 23/07/2026 01:15 22.8 43.0 1,015.1 β†’ Stable 0 frais-stable
11820 23/07/2026 00:45 23.3 40.0 1,015.1 β†’ Stable 0 conditions-neutrales-ou-non-definies
11819 23/07/2026 00:15 23.6 37.0 1,015.1 β†’ Stable 0 conditions-neutrales-ou-non-definies
11818 22/07/2026 23:45 24.2 35.0 1,015.1 β†’ Stable 0 conditions-neutrales-ou-non-definies
11817 22/07/2026 23:15 24.8 34.0 1,015.1 β†’ Stable 0 conditions-neutrales-ou-non-definies
11816 22/07/2026 22:45 25.5 32.0 1,014.7 β†’ Stable 0 conditions-neutrales-ou-non-definies
11815 22/07/2026 22:15 26.5 29.0 1,014.7 β†’ Stable 0 conditions-neutrales-ou-non-definies
11814 22/07/2026 21:45 27.2 27.0 1,014.6 β†’ Stable 0 conditions-neutrales-ou-non-definies
11813 22/07/2026 21:15 27.6 25.0 1,014.6 β†’ Stable 0 conditions-neutrales-ou-non-definies
11812 22/07/2026 20:45 28.4 24.0 1,014.2 β†’ Stable 0 conditions-neutrales-ou-non-definies
11811 22/07/2026 20:15 29.3 21.0 1,014.2 β†’ Stable 0 conditions-neutrales-ou-non-definies
11810 22/07/2026 19:45 30.0 20.0 1,014.0 β†’ Stable 96 chaleur-seche
11809 22/07/2026 19:15 31.6 17.0 1,014.0 β†’ Stable 5,460 chaleur-seche
11808 22/07/2026 18:45 32.3 16.0 1,014.0 β†’ Stable 12,504 chaleur-seche
11807 22/07/2026 18:15 33.4 13.0 1,014.0 β†’ Stable 23,796 chaleur-seche
11806 22/07/2026 17:45 33.8 13.0 1,013.9 β†’ Stable 33,060 chaleur-seche
11805 22/07/2026 17:15 34.0 12.0 1,013.9 β†’ Stable 45,828 chaleur-seche
11804 22/07/2026 16:45 34.2 12.0 1,014.2 β†’ Stable 56,760 chaleur-seche
11803 22/07/2026 16:15 34.3 12.0 1,014.2 β†’ Stable 67,128 chaleur-seche
11802 22/07/2026 15:45 34.3 12.0 1,014.7 β†’ Stable 75,924 chaleur-seche
11801 22/07/2026 15:15 34.3 13.0 1,014.7 β†’ Stable 83,520 chaleur-seche
11800 22/07/2026 14:45 34.0 14.0 1,015.2 β†’ Stable 90,180 chaleur-seche
11799 22/07/2026 14:15 33.8 15.0 1,015.2 β†’ Stable 95,832 chaleur-seche
11798 22/07/2026 13:45 33.3 16.0 1,015.7 β†’ Stable 100,188 chaleur-seche
11797 22/07/2026 13:15 32.9 17.0 1,015.8 β†’ Stable 103,428 chaleur-seche